createdAt,value
2022-10-10T00:01:49.219Z,6.15
2022-10-10T00:04:19.657Z,6.02
2022-10-10T00:06:49.881Z,6.10
2022-10-10T00:09:18.116Z,6.41
2022-10-10T00:11:46.003Z,6.17
2022-10-10T00:14:15.377Z,6.14
2022-10-10T00:16:46.760Z,6.17
2022-10-10T00:19:16.021Z,6.32
2022-10-10T00:21:45.461Z,6.30
2022-10-10T00:24:16.868Z,6.34
2022-10-10T00:26:45.607Z,6.32
2022-10-10T00:29:16.756Z,6.56
2022-10-10T00:31:53.788Z,6.44
2022-10-10T00:34:23.677Z,6.11
2022-10-10T00:36:54.416Z,6.42
2022-10-10T00:39:22.723Z,6.50
2022-10-10T00:42:02.878Z,6.56
2022-10-10T00:44:31.025Z,6.60
2022-10-10T00:46:59.380Z,6.58
2022-10-10T00:49:32.330Z,6.52
2022-10-10T00:52:04.745Z,6.72
2022-10-10T00:54:38.162Z,6.68
2022-10-10T00:57:12.023Z,6.90
2022-10-10T00:59:43.963Z,6.72
2022-10-10T01:02:13.997Z,6.95
2022-10-10T01:04:48.753Z,6.69
2022-10-10T01:07:24.221Z,6.73
2022-10-10T01:10:01.239Z,6.71
2022-10-10T01:12:41.847Z,6.71
2022-10-10T01:15:18.401Z,6.69
2022-10-10T01:17:54.597Z,6.58
2022-10-10T01:20:45.788Z,6.59
2022-10-10T01:23:42.471Z,6.66
2022-10-10T01:26:32.799Z,6.73
2022-10-10T01:29:11.207Z,6.65
2022-10-10T01:31:44.576Z,6.77
2022-10-10T01:34:23.110Z,6.83
2022-10-10T01:36:58.842Z,6.98
2022-10-10T01:39:38.713Z,6.91
2022-10-10T01:42:15.793Z,6.91
2022-10-10T01:44:48.562Z,7.02
2022-10-10T01:47:16.792Z,7.16
2022-10-10T01:49:51.024Z,7.05
2022-10-10T01:52:33.946Z,7.20
2022-10-10T01:55:21.251Z,7.02
2022-10-10T01:58:03.950Z,7.08
2022-10-10T02:00:43.735Z,6.93
2022-10-10T02:03:17.739Z,7.06
2022-10-10T02:05:54.363Z,7.11
2022-10-10T02:08:30.975Z,7.11
2022-10-10T02:11:02.127Z,7.29
2022-10-10T02:13:36.704Z,7.15
2022-10-10T02:16:10.119Z,7.13
2022-10-10T02:18:40.484Z,7.14
2022-10-10T02:21:10.650Z,6.92
2022-10-10T02:23:40.376Z,6.98
2022-10-10T02:26:14.774Z,6.67
2022-10-10T02:28:49.390Z,6.73
2022-10-10T02:31:24.728Z,6.71
2022-10-10T02:33:59.226Z,6.64
2022-10-10T02:36:29.655Z,6.77
2022-10-10T02:39:00.065Z,6.70
2022-10-10T02:41:37.147Z,6.58
2022-10-10T02:44:21.450Z,6.75
2022-10-10T02:46:52.846Z,6.58
2022-10-10T02:49:25.782Z,6.44
2022-10-10T02:51:53.874Z,6.64
2022-10-10T02:54:22.028Z,6.51
2022-10-10T02:56:50.170Z,6.75
2022-10-10T02:59:18.578Z,6.70
2022-10-10T03:01:47.251Z,6.80
2022-10-10T03:04:22.874Z,6.68
2022-10-10T03:06:50.940Z,6.73
2022-10-10T03:09:20.750Z,6.67
2022-10-10T03:11:48.694Z,6.52
2022-10-10T03:14:25.880Z,6.66
2022-10-10T03:16:54.827Z,6.73
2022-10-10T03:19:24.575Z,6.62
2022-10-10T03:21:52.465Z,6.66
2022-10-10T03:24:22.741Z,6.67
2022-10-10T03:26:50.747Z,6.57
2022-10-10T03:29:18.697Z,6.77
2022-10-10T03:31:49.074Z,6.73
2022-10-10T03:34:17.101Z,6.92
2022-10-10T03:36:47.115Z,6.91
2022-10-10T03:39:16.050Z,6.90
2022-10-10T03:41:50.316Z,6.65
2022-10-10T03:44:26.977Z,6.65
2022-10-10T03:46:55.011Z,6.48
2022-10-10T03:49:22.940Z,6.48
2022-10-10T03:51:53.659Z,6.62
2022-10-10T03:54:21.620Z,6.49
2022-10-10T03:56:51.668Z,6.56
2022-10-10T03:59:19.637Z,6.51
2022-10-10T04:01:49.009Z,6.66
2022-10-10T04:04:17.104Z,6.51
2022-10-10T04:06:46.738Z,6.59
2022-10-10T04:09:15.922Z,6.56
2022-10-10T04:11:46.772Z,6.43
2022-10-10T04:14:15.361Z,6.35
2022-10-10T04:16:48.517Z,6.52
2022-10-10T04:19:17.638Z,6.46
2022-10-10T04:21:45.655Z,6.46
2022-10-10T04:24:15.137Z,6.37
2022-10-10T04:26:43.101Z,6.39
2022-10-10T04:29:11.002Z,6.35
2022-10-10T04:31:38.969Z,6.13
2022-10-10T04:34:09.443Z,6.25
2022-10-10T04:36:38.089Z,6.16
2022-10-10T04:39:06.056Z,6.02
2022-10-10T04:41:41.494Z,6.16
2022-10-10T04:44:09.681Z,6.29
2022-10-10T04:46:38.879Z,6.27
2022-10-10T04:49:06.905Z,6.09
2022-10-10T04:51:34.828Z,6.17
2022-10-10T04:54:02.909Z,6.15
2022-10-10T04:56:31.407Z,5.93
2022-10-10T04:59:01.292Z,6.07
2022-10-10T05:01:31.631Z,6.08
2022-10-10T05:04:00.536Z,6.15
2022-10-10T05:06:29.818Z,6.06
2022-10-10T05:09:06.866Z,5.86
2022-10-10T05:11:35.157Z,6.10
2022-10-10T05:14:12.480Z,6.14
2022-10-10T05:17:12.681Z,6.00
2022-10-10T05:20:10.906Z,6.07
2022-10-10T05:22:41.843Z,6.07
2022-10-10T05:26:15.684Z,6.11
2022-10-10T05:29:36.915Z,6.39
2022-10-10T05:32:59.132Z,6.25
2022-10-10T05:35:29.315Z,6.15
2022-10-10T05:37:58.582Z,6.04
2022-10-10T05:40:29.042Z,6.15
2022-10-10T05:42:58.180Z,6.15
2022-10-10T05:45:27.526Z,6.14
2022-10-10T05:47:56.067Z,6.11
2022-10-10T05:50:34.304Z,6.16
2022-10-10T05:53:06.885Z,6.17
2022-10-10T05:55:35.391Z,6.25
2022-10-10T05:58:03.625Z,6.17
2022-10-10T06:00:31.546Z,6.17
2022-10-10T06:02:59.769Z,6.18
2022-10-10T06:05:27.842Z,6.14
2022-10-10T06:08:07.863Z,6.22
2022-10-10T06:10:43.425Z,6.28
2022-10-10T06:13:12.668Z,6.26
2022-10-10T06:15:43.914Z,6.27
2022-10-10T06:18:13.562Z,6.43
2022-10-10T06:20:43.357Z,6.40
2022-10-10T06:23:14.991Z,6.49
2022-10-10T06:25:43.336Z,6.57
2022-10-10T06:28:12.850Z,6.65
2022-10-10T06:30:46.393Z,6.79
2022-10-10T06:33:19.170Z,6.99
2022-10-10T06:35:49.159Z,6.97
2022-10-10T06:38:20.539Z,6.93
2022-10-10T06:40:48.994Z,6.98
2022-10-10T06:43:20.513Z,7.06
2022-10-10T06:45:51.559Z,7.21
2022-10-10T06:48:19.549Z,7.23
2022-10-10T06:51:00.852Z,7.56
2022-10-10T06:53:30.968Z,7.79
2022-10-10T06:56:00.662Z,7.90
2022-10-10T06:58:32.649Z,7.94
2022-10-10T07:01:02.683Z,8.05
2022-10-10T07:03:31.466Z,8.30
2022-10-10T07:06:15.063Z,8.68
2022-10-10T07:08:44.560Z,8.73
2022-10-10T07:11:12.725Z,8.81
2022-10-10T07:13:41.548Z,8.77
2022-10-10T07:16:12.998Z,8.71
2022-10-10T07:18:40.794Z,8.74
2022-10-10T07:21:08.959Z,8.76
2022-10-10T07:23:39.918Z,8.78
2022-10-10T07:26:16.864Z,8.81
2022-10-10T07:28:48.293Z,8.93
2022-10-10T07:31:16.826Z,9.01
2022-10-10T07:33:50.536Z,9.04
2022-10-10T07:36:20.489Z,9.09
2022-10-10T07:38:52.119Z,9.20
2022-10-10T07:41:24.667Z,9.32
2022-10-10T07:43:59.004Z,9.80
2022-10-10T07:46:26.825Z,10.87
2022-10-10T07:48:56.600Z,11.82
2022-10-10T07:51:24.452Z,12.90
2022-10-10T07:53:53.374Z,13.04
2022-10-10T07:56:23.315Z,13.43
2022-10-10T07:58:51.618Z,13.49
2022-10-10T08:01:20.040Z,13.64
2022-10-10T08:03:58.106Z,13.48
2022-10-10T08:06:28.110Z,13.33
2022-10-10T08:08:57.110Z,13.30
2022-10-10T08:11:26.545Z,13.73
2022-10-10T08:13:54.639Z,13.92
2022-10-10T08:16:22.636Z,14.18
2022-10-10T08:18:50.614Z,13.82
2022-10-10T08:21:20.597Z,13.64
2022-10-10T08:23:48.537Z,14.08
2022-10-10T08:26:22.000Z,14.03
2022-10-10T08:28:52.050Z,13.97
2022-10-10T08:31:26.303Z,13.75
2022-10-10T08:33:57.794Z,14.55
2022-10-10T08:36:25.891Z,15.13
2022-10-10T08:38:57.538Z,15.70
2022-10-10T08:41:35.943Z,14.93
2022-10-10T08:44:16.666Z,14.37
2022-10-10T08:46:50.982Z,14.29
2022-10-10T08:49:25.466Z,14.81
2022-10-10T08:52:03.321Z,15.04
2022-10-10T08:54:35.311Z,15.74
2022-10-10T08:57:12.986Z,15.09
2022-10-10T08:59:45.143Z,15.17
2022-10-10T09:02:53.100Z,14.50
2022-10-10T09:05:30.325Z,14.46
2022-10-10T09:08:26.659Z,14.93
2022-10-10T09:10:59.475Z,14.80
2022-10-10T09:13:34.716Z,15.21
2022-10-10T09:16:11.271Z,14.72
2022-10-10T09:18:55.194Z,15.24
2022-10-10T09:21:27.162Z,16.16
2022-10-10T09:24:01.992Z,16.34
2022-10-10T09:26:38.463Z,17.00
2022-10-10T09:29:18.862Z,17.71
2022-10-10T09:31:56.836Z,17.66
2022-10-10T09:34:34.098Z,16.65
2022-10-10T09:37:03.950Z,17.35
2022-10-10T09:39:40.132Z,17.35
2022-10-10T09:42:14.215Z,17.19
2022-10-10T09:44:43.990Z,17.39
2022-10-10T09:47:16.737Z,17.12
2022-10-10T09:49:46.473Z,17.07
2022-10-10T09:52:31.459Z,16.63
2022-10-10T09:55:07.018Z,16.34
2022-10-10T09:57:43.709Z,16.29
2022-10-10T10:00:57.042Z,15.74
2022-10-10T10:07:32.196Z,16.20
2022-10-10T10:10:19.479Z,16.19
2022-10-10T10:13:05.256Z,16.54
2022-10-10T10:15:37.426Z,16.78
2022-10-10T10:18:13.040Z,17.17
2022-10-10T10:20:45.727Z,17.71
2022-10-10T10:23:35.325Z,17.32
2022-10-10T10:26:07.522Z,17.33
2022-10-10T10:28:41.914Z,17.14
2022-10-10T10:31:21.631Z,16.53
2022-10-10T10:34:12.004Z,16.71
2022-10-10T10:36:49.459Z,17.20
2022-10-10T10:39:39.742Z,16.93
2022-10-10T10:42:20.251Z,17.13
2022-10-10T10:44:58.373Z,17.56
2022-10-10T10:47:45.841Z,16.87
2022-10-10T10:50:42.020Z,16.75
2022-10-10T10:53:19.323Z,17.16
2022-10-10T10:55:54.681Z,17.84
2022-10-10T10:59:15.806Z,18.01
2022-10-10T11:01:58.394Z,18.11
2022-10-10T11:05:23.000Z,18.00
2022-10-10T11:07:59.731Z,16.69
2022-10-10T11:10:37.754Z,16.61
2022-10-10T11:13:17.312Z,16.47
2022-10-10T11:16:06.014Z,16.04
2022-10-10T11:18:41.163Z,15.66
2022-10-10T11:21:16.620Z,15.41
2022-10-10T11:23:48.801Z,15.13
2022-10-10T11:26:25.792Z,14.86
2022-10-10T11:29:00.960Z,15.01
2022-10-10T11:31:34.334Z,14.95
2022-10-10T11:34:11.110Z,14.93
2022-10-10T11:36:48.462Z,14.83
2022-10-10T11:39:22.544Z,14.65
2022-10-10T11:41:58.479Z,14.52
2022-10-10T11:44:32.656Z,14.01
2022-10-10T11:47:08.229Z,13.70
2022-10-10T11:49:46.480Z,13.71
2022-10-10T11:52:34.104Z,13.71
2022-10-10T11:55:10.160Z,13.64
2022-10-10T11:57:42.673Z,13.73
2022-10-10T12:00:15.993Z,13.90
2022-10-10T12:02:47.368Z,13.98
2022-10-10T12:05:29.118Z,13.77
2022-10-10T12:08:14.352Z,13.95
2022-10-10T12:10:55.700Z,14.07
2022-10-10T12:13:30.654Z,14.14
2022-10-10T12:16:06.673Z,14.07
2022-10-10T12:18:42.725Z,14.08
2022-10-10T12:21:13.906Z,14.18
2022-10-10T12:23:43.497Z,14.35
2022-10-10T12:26:19.977Z,14.45
2022-10-10T12:29:03.233Z,14.36
2022-10-10T12:31:35.740Z,14.35
2022-10-10T12:34:23.086Z,14.40
2022-10-10T12:37:14.628Z,14.46
2022-10-10T12:40:07.401Z,14.61
2022-10-10T12:42:43.613Z,14.67
2022-10-10T12:45:49.718Z,14.37
2022-10-10T12:48:23.379Z,14.31
2022-10-10T12:50:59.284Z,14.17
2022-10-10T12:53:29.554Z,14.09
2022-10-10T12:56:02.252Z,13.92
2022-10-10T12:58:33.465Z,13.92
2022-10-10T13:01:03.949Z,13.85
2022-10-10T13:03:37.632Z,13.67
2022-10-10T13:06:10.057Z,13.69
2022-10-10T13:08:39.068Z,13.75
2022-10-10T13:11:10.829Z,13.64
2022-10-10T13:13:40.242Z,13.47
2022-10-10T13:16:10.538Z,13.40
2022-10-10T13:18:41.641Z,13.31
2022-10-10T13:21:13.147Z,13.23
2022-10-10T13:23:44.277Z,13.22
2022-10-10T13:26:23.404Z,13.11
2022-10-10T13:28:52.557Z,13.00
2022-10-10T13:31:21.010Z,12.90
2022-10-10T13:34:01.391Z,12.98
2022-10-10T13:36:30.990Z,13.00
2022-10-10T13:38:59.708Z,12.79
2022-10-10T13:41:32.124Z,12.98
2022-10-10T13:44:02.121Z,12.90
2022-10-10T13:46:33.189Z,12.93
2022-10-10T13:49:02.595Z,12.98
2022-10-10T13:51:44.301Z,12.92
2022-10-10T13:54:40.984Z,12.95
2022-10-10T13:57:15.429Z,12.91
2022-10-10T13:59:45.000Z,12.87
2022-10-10T14:02:18.869Z,12.67
2022-10-10T14:04:53.635Z,12.53
2022-10-10T14:07:25.423Z,12.33
2022-10-10T14:09:56.707Z,11.96
2022-10-10T14:12:32.062Z,11.83
2022-10-10T14:15:01.699Z,11.79
2022-10-10T14:17:31.048Z,11.74
2022-10-10T14:20:03.111Z,11.86
2022-10-10T14:22:30.979Z,11.79
2022-10-10T14:25:02.685Z,11.78
2022-10-10T14:27:36.278Z,11.75
2022-10-10T14:30:05.923Z,11.76
2022-10-10T14:32:35.013Z,11.78
2022-10-10T14:35:10.333Z,11.78
2022-10-10T14:37:38.911Z,11.65
2022-10-10T14:40:19.366Z,11.54
2022-10-10T14:42:47.300Z,11.67
2022-10-10T14:45:18.721Z,11.67
2022-10-10T14:47:53.074Z,11.77
2022-10-10T14:50:33.410Z,11.79
2022-10-10T14:53:36.587Z,11.86
2022-10-10T14:57:09.413Z,11.94
2022-10-10T14:59:47.218Z,12.23
2022-10-10T15:02:13.983Z,12.31
2022-10-10T15:04:42.847Z,12.38
2022-10-10T15:07:14.656Z,12.54
2022-10-10T15:12:37.673Z,12.40
2022-10-10T15:15:08.103Z,12.43
2022-10-10T15:17:36.323Z,12.36
2022-10-10T15:20:07.761Z,12.31
2022-10-10T15:22:37.878Z,12.39
2022-10-10T15:25:06.511Z,12.36
2022-10-10T15:27:35.061Z,12.31
2022-10-10T15:30:03.425Z,12.17
2022-10-10T15:32:45.025Z,12.10
2022-10-10T15:35:17.079Z,12.15
2022-10-10T15:37:51.068Z,11.94
2022-10-10T15:40:21.851Z,11.81
2022-10-10T15:42:52.532Z,11.83
2022-10-10T15:45:44.039Z,11.63
2022-10-10T15:48:09.414Z,11.51
2022-10-10T15:50:45.060Z,11.38
2022-10-10T15:53:15.875Z,11.37
2022-10-10T15:55:43.886Z,11.14
2022-10-10T15:58:15.240Z,11.05
2022-10-10T16:00:48.539Z,10.95
2022-10-10T16:03:19.177Z,10.89
2022-10-10T16:05:47.095Z,10.77
2022-10-10T16:08:17.452Z,10.71
2022-10-10T16:10:45.539Z,10.60
2022-10-10T16:13:15.809Z,10.50
2022-10-10T16:15:44.342Z,10.47
2022-10-10T16:18:12.168Z,10.38
2022-10-10T16:20:40.347Z,10.24
2022-10-10T16:23:08.589Z,10.28
2022-10-10T16:25:37.814Z,10.28
2022-10-10T16:28:06.886Z,10.23
2022-10-10T16:30:34.826Z,10.22
2022-10-10T16:33:02.702Z,10.04
2022-10-10T16:35:30.737Z,9.93
2022-10-10T16:38:00.255Z,9.80
2022-10-10T16:40:28.160Z,9.69
2022-10-10T16:42:58.384Z,9.56
2022-10-10T16:45:26.548Z,9.40
2022-10-10T16:47:54.376Z,9.34
2022-10-10T16:50:22.277Z,9.29
2022-10-10T16:52:50.538Z,9.15
2022-10-10T16:55:18.692Z,9.13
2022-10-10T16:57:47.325Z,9.10
2022-10-10T17:00:17.308Z,9.02
2022-10-10T17:02:45.340Z,9.02
2022-10-10T17:05:13.397Z,9.06
2022-10-10T17:07:42.719Z,8.96
2022-10-10T17:10:11.309Z,8.83
2022-10-10T17:12:39.223Z,8.70
2022-10-10T17:15:10.589Z,8.70
2022-10-10T17:17:45.162Z,8.51
2022-10-10T17:20:13.806Z,8.46
2022-10-10T17:22:41.955Z,8.48
2022-10-10T17:25:12.637Z,8.37
2022-10-10T17:27:46.050Z,8.02
2022-10-10T17:30:14.882Z,7.85
2022-10-10T17:32:47.583Z,7.78
2022-10-10T17:35:16.065Z,7.74
2022-10-10T17:37:49.258Z,7.70
2022-10-10T17:40:17.422Z,7.46
2022-10-10T17:42:45.779Z,7.61
2022-10-10T17:45:13.627Z,7.81
2022-10-10T17:47:43.989Z,7.47
2022-10-10T17:50:13.339Z,7.50
2022-10-10T17:52:41.740Z,7.52
2022-10-10T17:55:10.264Z,7.52
2022-10-10T17:57:38.482Z,7.52
2022-10-10T18:00:07.209Z,7.28
2022-10-10T18:02:36.112Z,7.39
2022-10-10T18:05:07.095Z,7.39
2022-10-10T18:07:36.239Z,7.34
2022-10-10T18:10:04.871Z,7.15
2022-10-10T18:12:33.019Z,7.22
2022-10-10T18:15:03.878Z,7.11
2022-10-10T18:17:31.940Z,7.54
2022-10-10T18:19:59.907Z,7.30
2022-10-10T18:22:29.465Z,7.20
2022-10-10T18:24:59.833Z,7.00
2022-10-10T18:27:29.880Z,6.84
2022-10-10T18:30:00.251Z,6.93
2022-10-10T18:32:28.486Z,6.98
2022-10-10T18:34:58.374Z,6.87
2022-10-10T18:37:26.265Z,6.76
2022-10-10T18:39:56.689Z,6.87
2022-10-10T18:42:24.564Z,7.24
2022-10-10T18:44:55.482Z,7.37
2022-10-10T18:47:23.729Z,6.95
2022-10-10T18:49:52.823Z,6.97
2022-10-10T18:52:21.205Z,7.15
2022-10-10T18:54:50.444Z,7.38
2022-10-10T18:57:20.078Z,7.43
2022-10-10T18:59:52.650Z,7.50
2022-10-10T19:02:20.771Z,7.53
2022-10-10T19:04:49.240Z,7.46
2022-10-10T19:07:17.420Z,7.50
2022-10-10T19:09:47.185Z,7.23
2022-10-10T19:12:15.276Z,7.35
2022-10-10T19:14:45.000Z,7.25
2022-10-10T19:17:13.170Z,7.10
2022-10-10T19:19:48.590Z,7.17
2022-10-10T19:22:32.817Z,7.20
2022-10-10T19:26:19.406Z,7.16
2022-10-10T19:28:52.642Z,7.20
2022-10-10T19:31:31.980Z,7.18
2022-10-10T19:34:07.045Z,7.31
2022-10-10T19:36:45.080Z,7.32
2022-10-10T19:39:25.359Z,7.24
2022-10-10T19:42:06.655Z,7.21
2022-10-10T19:44:34.762Z,7.04
2022-10-10T19:47:04.060Z,7.11
2022-10-10T19:49:32.003Z,7.04
2022-10-10T19:51:59.913Z,7.00
2022-10-10T19:54:30.984Z,6.97
2022-10-10T19:57:00.156Z,7.03
2022-10-10T19:59:28.089Z,6.99
2022-10-10T20:01:56.486Z,7.21
2022-10-10T20:04:25.623Z,7.13
2022-10-10T20:06:54.830Z,7.09
2022-10-10T20:09:25.642Z,7.00
2022-10-10T20:11:54.933Z,7.00
2022-10-10T20:14:24.739Z,7.04
2022-10-10T20:16:54.009Z,6.98
2022-10-10T20:19:22.399Z,7.03
2022-10-10T20:21:52.235Z,6.97
2022-10-10T20:24:27.915Z,7.07
2022-10-10T20:26:56.680Z,7.08
2022-10-10T20:29:28.711Z,7.00
2022-10-10T20:31:58.958Z,6.97
2022-10-10T20:34:30.078Z,6.76
2022-10-10T20:37:08.514Z,6.62
2022-10-10T20:39:44.803Z,6.72
2022-10-10T20:42:13.161Z,6.39
2022-10-10T20:44:43.314Z,6.39
2022-10-10T20:47:12.244Z,6.42
2022-10-10T20:49:40.833Z,6.43
2022-10-10T20:52:10.314Z,6.45
2022-10-10T20:54:39.229Z,6.38
2022-10-10T20:57:07.107Z,6.26
2022-10-10T20:59:34.883Z,6.06
2022-10-10T21:02:02.847Z,6.11
2022-10-10T21:04:31.001Z,6.28
2022-10-10T21:06:59.080Z,6.23
2022-10-10T21:09:29.018Z,6.05
2022-10-10T21:11:57.316Z,6.38
2022-10-10T21:14:26.357Z,6.13
2022-10-10T21:16:54.554Z,6.45
2022-10-10T21:19:23.233Z,6.28
2022-10-10T21:21:52.153Z,6.34
2022-10-10T21:24:19.982Z,6.40
2022-10-10T21:26:50.821Z,6.54
2022-10-10T21:29:18.708Z,6.45
2022-10-10T21:31:46.801Z,6.64
2022-10-10T21:34:18.707Z,6.71
2022-10-10T21:36:46.692Z,6.67
2022-10-10T21:39:16.108Z,6.47
2022-10-10T21:41:44.098Z,6.29
2022-10-10T21:44:14.445Z,6.48
2022-10-10T21:46:42.484Z,6.52
2022-10-10T21:49:13.216Z,6.35
2022-10-10T21:51:42.602Z,6.25
2022-10-10T21:54:11.393Z,6.28
2022-10-10T21:56:39.903Z,6.41
2022-10-10T21:59:08.463Z,6.47
2022-10-10T22:01:44.477Z,6.29
2022-10-10T22:04:12.711Z,6.15
2022-10-10T22:06:40.661Z,5.93
2022-10-10T22:09:08.730Z,6.00
2022-10-10T22:11:47.263Z,6.07
2022-10-10T22:14:15.542Z,6.03
2022-10-10T22:16:44.831Z,5.96
2022-10-10T22:19:12.832Z,6.13
2022-10-10T22:21:40.885Z,5.91
2022-10-10T22:24:12.458Z,5.98
2022-10-10T22:26:43.999Z,5.83
2022-10-10T22:29:14.371Z,5.61
2022-10-10T22:31:43.790Z,5.77
2022-10-10T22:34:13.223Z,5.59
2022-10-10T22:36:41.064Z,5.65
2022-10-10T22:39:11.059Z,5.48
2022-10-10T22:41:39.120Z,5.50
2022-10-10T22:44:07.174Z,5.31
2022-10-10T22:46:36.145Z,5.43
2022-10-10T22:49:04.744Z,5.32
2022-10-10T22:51:34.162Z,5.45
2022-10-10T22:54:07.053Z,5.38
2022-10-10T22:56:34.883Z,5.50
2022-10-10T22:59:02.888Z,5.25
2022-10-10T23:01:31.305Z,5.59
2022-10-10T23:04:03.415Z,5.73
2022-10-10T23:06:31.173Z,5.57
2022-10-10T23:09:01.604Z,5.52
2022-10-10T23:11:30.696Z,5.43
2022-10-10T23:13:58.861Z,5.47
2022-10-10T23:16:31.717Z,5.50
2022-10-10T23:19:00.728Z,5.50
2022-10-10T23:21:28.799Z,5.99
2022-10-10T23:24:00.258Z,5.84
2022-10-10T23:26:29.634Z,5.99
2022-10-10T23:28:58.317Z,5.83
2022-10-10T23:31:26.369Z,5.74
2022-10-10T23:33:54.217Z,5.59
2022-10-10T23:36:21.988Z,5.76
2022-10-10T23:38:50.151Z,5.91
2022-10-10T23:41:19.278Z,5.66
2022-10-10T23:43:49.429Z,5.72
2022-10-10T23:46:17.498Z,5.63
2022-10-10T23:48:45.448Z,5.66
2022-10-10T23:51:13.547Z,5.57
2022-10-10T23:53:41.514Z,5.58
2022-10-10T23:56:11.235Z,5.81
2022-10-10T23:58:39.144Z,5.96
